Time;durP1;ratioP1;P1;durP2;ratioP2;P2;SDS_P1;SDS_P2;PMS_P1;PMS_P2;Temp;Humidity;BMP_temperature;BMP_pressure;BME280_temperature;BME280_humidity;BME280_pressure;Samples;Min_cycle;Max_cycle;Signal;HPM_P1;HPM_P2
2022/05/19 00:02:07;;;;;;;14.38;5.40;;;10.30;99.90;;;;;;5034174;28;20132;-68
2022/05/19 00:04:34;;;;;;;12.88;4.72;;;10.30;99.90;;;;;;5031939;28;20112;-70
2022/05/19 00:07:02;;;;;;;10.07;4.43;;;10.30;99.90;;;;;;5036192;28;20029;-69
2022/05/19 00:09:28;;;;;;;9.38;3.78;;;10.20;99.90;;;;;;5033818;28;20033;-71
2022/05/19 00:11:57;;;;;;;6.53;3.40;;;10.20;99.90;;;;;;5032496;28;20022;-70
2022/05/19 00:14:23;;;;;;;8.75;3.75;;;10.10;99.90;;;;;;5032232;28;20382;-70
2022/05/19 00:16:49;;;;;;;11.98;4.72;;;10.20;99.90;;;;;;5032329;28;20104;-70
2022/05/19 00:19:18;;;;;;;8.98;4.25;;;10.10;99.90;;;;;;5031635;28;20446;-70
2022/05/19 00:21:44;;;;;;;10.82;3.72;;;10.00;99.90;;;;;;5032399;28;20115;-70
2022/05/19 00:24:13;;;;;;;11.50;4.13;;;9.90;99.90;;;;;;5036538;28;20434;-64
2022/05/19 00:26:40;;;;;;;15.30;4.35;;;9.90;99.90;;;;;;5045303;28;20021;-70
2022/05/19 00:29:08;;;;;;;7.15;3.85;;;9.80;99.90;;;;;;5043795;28;20032;-70
2022/05/19 00:31:35;;;;;;;7.53;3.55;;;9.70;99.90;;;;;;5043105;28;20636;-68
2022/05/19 00:34:03;;;;;;;7.55;3.22;;;9.80;99.90;;;;;;5040322;28;20026;-69
2022/05/19 00:36:37;;;;;;;8.68;3.95;;;9.80;99.90;;;;;;5041909;28;20434;-69
2022/05/19 00:39:06;;;;;;;8.57;3.83;;;9.80;99.90;;;;;;5037599;28;20072;-71
2022/05/19 00:41:34;;;;;;;9.63;3.45;;;9.90;99.90;;;;;;5033262;28;20033;-70
2022/05/19 00:44:07;;;;;;;7.40;3.58;;;9.90;99.90;;;;;;5032707;28;20092;-69
2022/05/19 00:46:51;;;;;;;11.65;3.75;;;9.80;99.90;;;;;;5034020;28;20050;-70
2022/05/19 00:49:17;;;;;;;9.65;3.40;;;9.80;99.90;;;;;;5032818;28;20404;-68
2022/05/19 00:52:23;;;;;;;6.97;3.05;;;9.80;99.90;;;;;;5032799;28;20021;-70
2022/05/19 00:55:02;;;;;;;10.15;3.35;;;9.90;99.90;;;;;;5035515;28;20496;-63
2022/05/19 00:57:31;;;;;;;8.40;2.95;;;9.90;99.90;;;;;;5038178;28;20025;-63
2022/05/19 01:00:04;;;;;;;6.95;3.30;;;9.90;99.90;;;;;;5035555;28;20124;-69
2022/05/19 01:02:36;;;;;;;7.75;3.20;;;9.90;99.90;;;;;;5041974;28;20468;-70
2022/05/19 01:05:06;;;;;;;5.68;3.20;;;9.80;99.90;;;;;;5033827;28;20783;-70
2022/05/19 01:07:41;;;;;;;7.95;2.50;;;9.60;99.90;;;;;;5031793;28;20025;-71
2022/05/19 01:10:09;;;;;;;3.88;2.58;;;9.60;99.90;;;;;;5030404;28;20029;-70
2022/05/19 01:12:36;;;;;;;7.57;2.70;;;9.50;99.90;;;;;;5031117;28;20036;-65
2022/05/19 01:15:03;;;;;;;5.22;2.58;;;9.50;99.90;;;;;;5031165;28;20027;-71
2022/05/19 01:17:32;;;;;;;6.63;2.67;;;9.30;99.90;;;;;;5030729;28;20037;-68
2022/05/19 01:20:23;;;;;;;6.57;3.03;;;9.20;99.90;;;;;;5030956;28;20127;-72
2022/05/19 01:22:55;;;;;;;6.78;3.30;;;9.20;99.90;;;;;;5031017;28;20037;-70
2022/05/19 01:25:42;;;;;;;6.90;3.65;;;9.20;99.90;;;;;;5031090;28;20037;-63
2022/05/19 01:28:09;;;;;;;7.28;3.13;;;9.20;99.90;;;;;;5031127;28;20029;-72
2022/05/19 01:30:34;;;;;;;6.78;2.88;;;9.00;99.90;;;;;;5030980;28;20677;-65
2022/05/19 01:33:00;;;;;;;7.65;3.22;;;9.00;99.90;;;;;;5030882;28;20029;-70
2022/05/19 01:35:32;;;;;;;9.05;2.83;;;9.10;99.90;;;;;;5030694;28;20056;-68
2022/05/19 01:37:58;;;;;;;7.07;2.97;;;9.20;99.90;;;;;;5030613;28;20080;-71
2022/05/19 01:40:49;;;;;;;6.05;3.08;;;9.00;99.90;;;;;;5029629;28;20025;-66
2022/05/19 01:43:51;;;;;;;13.90;3.05;;;8.90;99.90;;;;;;5030623;28;20083;-70
2022/05/19 01:46:35;;;;;;;8.35;3.38;;;8.80;99.90;;;;;;5030317;28;20083;-70
2022/05/19 01:49:03;;;;;;;6.88;3.30;;;8.90;99.90;;;;;;5030565;28;20487;-68
2022/05/19 01:51:43;;;;;;;9.10;3.38;;;9.00;99.90;;;;;;5030733;28;20029;-70
2022/05/19 01:54:28;;;;;;;7.78;3.38;;;9.00;99.90;;;;;;5031252;28;20029;-72
2022/05/19 01:56:55;;;;;;;6.20;3.17;;;9.00;99.90;;;;;;5030676;28;20025;-70
2022/05/19 02:00:09;;;;;;;12.32;4.47;;;9.00;99.90;;;;;;5030474;28;20033;-71
2022/05/19 02:03:12;;;;;;;10.07;3.45;;;8.90;99.90;;;;;;5030583;28;20029;-70
2022/05/19 02:05:43;;;;;;;6.30;3.40;;;8.90;99.90;;;;;;5031706;28;20045;-71
2022/05/19 02:08:23;;;;;;;9.68;3.53;;;8.90;99.90;;;;;;5031878;28;20030;-72
2022/05/19 02:10:53;;;;;;;11.95;4.00;;;8.80;99.90;;;;;;5031981;28;20060;-70
2022/05/19 02:13:23;;;;;;;7.15;3.55;;;8.80;99.90;;;;;;5032090;28;20483;-71
2022/05/19 02:15:52;;;;;;;10.77;3.40;;;8.80;99.90;;;;;;5032076;28;20044;-70
2022/05/19 02:18:24;;;;;;;9.20;3.42;;;8.60;99.90;;;;;;5031885;28;20030;-71
2022/05/19 02:20:53;;;;;;;9.13;3.35;;;8.50;99.90;;;;;;5033394;28;20068;-71
2022/05/19 02:23:19;;;;;;;7.50;3.35;;;8.50;99.90;;;;;;5035905;28;20040;-71
2022/05/19 02:25:48;;;;;;;6.72;3.60;;;8.30;99.90;;;;;;5035834;28;20034;-71
2022/05/19 02:28:20;;;;;;;6.45;3.22;;;8.30;99.90;;;;;;5036291;28;20030;-71
2022/05/19 02:30:49;;;;;;;9.10;3.85;;;8.40;99.90;;;;;;5036215;28;20037;-70
2022/05/19 02:33:17;;;;;;;8.43;3.50;;;8.40;99.90;;;;;;5035835;28;20057;-72
2022/05/19 02:35:44;;;;;;;6.47;3.05;;;8.40;99.90;;;;;;5035527;28;20029;-69
2022/05/19 02:38:13;;;;;;;6.43;2.72;;;8.40;99.90;;;;;;5035933;28;20087;-71
2022/05/19 02:40:40;;;;;;;6.78;3.65;;;8.40;99.90;;;;;;5035681;28;20036;-71
2022/05/19 02:43:06;;;;;;;9.95;3.63;;;8.50;99.90;;;;;;5047615;28;20509;-71
2022/05/19 02:45:36;;;;;;;7.95;3.40;;;8.60;99.90;;;;;;5035683;28;20032;-71
2022/05/19 02:48:03;;;;;;;7.63;3.92;;;8.60;99.90;;;;;;5044314;28;20072;-71
2022/05/19 02:50:29;;;;;;;5.80;3.22;;;8.60;99.90;;;;;;5055261;28;20041;-71
2022/05/19 02:52:57;;;;;;;6.82;4.03;;;8.70;99.90;;;;;;5055409;28;20052;-71
2022/05/19 02:55:23;;;;;;;6.43;2.92;;;8.60;99.90;;;;;;5055322;28;20028;-71
2022/05/19 02:57:54;;;;;;;6.78;3.50;;;8.60;99.90;;;;;;5054926;28;20052;-72
2022/05/19 03:00:24;;;;;;;8.65;3.22;;;8.60;99.90;;;;;;5044724;28;20032;-71
2022/05/19 03:02:50;;;;;;;9.57;3.67;;;8.50;99.90;;;;;;5037685;28;20111;-71
2022/05/19 03:05:20;;;;;;;8.18;3.30;;;8.50;99.90;;;;;;5055232;28;20126;-70
2022/05/19 03:07:46;;;;;;;5.53;2.92;;;8.50;99.90;;;;;;5054957;28;20047;-71
2022/05/19 03:10:21;;;;;;;16.55;3.92;;;8.50;99.90;;;;;;5054681;28;20025;-71
2022/05/19 03:12:47;;;;;;;9.43;4.28;;;8.40;99.90;;;;;;5053861;28;20601;-71
2022/05/19 03:15:16;;;;;;;7.18;3.45;;;8.40;99.90;;;;;;5042133;28;20031;-71
2022/05/19 03:17:42;;;;;;;9.73;3.28;;;8.50;99.90;;;;;;5033210;28;20040;-70
2022/05/19 03:20:10;;;;;;;9.60;3.75;;;8.60;99.90;;;;;;5053965;28;20029;-71
2022/05/19 03:22:36;;;;;;;8.77;3.08;;;8.50;99.90;;;;;;5054797;28;20370;-71
2022/05/19 03:25:05;;;;;;;6.38;2.85;;;8.60;99.90;;;;;;5038588;28;20033;-71
2022/05/19 03:27:32;;;;;;;9.38;3.30;;;8.50;99.90;;;;;;5035506;28;20491;-71
2022/05/19 03:29:57;;;;;;;9.55;3.63;;;8.40;99.90;;;;;;5041439;28;20056;-69
2022/05/19 03:32:23;;;;;;;10.65;3.83;;;8.60;99.90;;;;;;5039294;28;20065;-71
2022/05/19 03:34:51;;;;;;;6.82;3.28;;;8.90;99.90;;;;;;5036433;28;20399;-71
2022/05/19 03:37:17;;;;;;;6.28;2.80;;;9.80;99.90;;;;;;5035597;28;20017;-71
2022/05/19 03:39:45;;;;;;;6.07;2.92;;;11.00;99.90;;;;;;5034519;28;20113;-69
2022/05/19 03:42:11;;;;;;;5.45;3.50;;;11.80;99.90;;;;;;5035149;28;20029;-71
2022/05/19 03:44:39;;;;;;;6.30;3.30;;;12.40;99.10;;;;;;5034646;28;20031;-71
2022/05/19 03:47:06;;;;;;;6.55;3.00;;;13.00;98.20;;;;;;5034911;28;20127;-69
2022/05/19 03:49:32;;;;;;;7.00;3.05;;;13.60;94.10;;;;;;5049499;28;20025;-72
2022/05/19 03:51:58;;;;;;;6.93;3.15;;;14.00;91.70;;;;;;5043027;28;20409;-72
2022/05/19 03:54:24;;;;;;;7.03;3.28;;;14.60;90.10;;;;;;5034093;28;20064;-71
2022/05/19 03:56:50;;;;;;;7.28;2.83;;;14.40;87.90;;;;;;5034461;28;20025;-71
2022/05/19 03:59:16;;;;;;;4.78;3.00;;;15.70;86.30;;;;;;5037650;28;20029;-71
2022/05/19 04:01:42;;;;;;;7.85;3.70;;;16.00;78.70;;;;;;5034723;28;20486;-72
2022/05/19 04:04:08;;;;;;;8.23;3.40;;;16.10;76.90;;;;;;5036777;28;20068;-71
2022/05/19 04:06:36;;;;;;;6.88;3.05;;;16.40;77.00;;;;;;5048109;28;20409;-71
2022/05/19 04:09:03;;;;;;;5.75;3.25;;;17.10;75.40;;;;;;5035415;28;20116;-70
2022/05/19 04:11:29;;;;;;;5.40;3.55;;;17.90;72.70;;;;;;5033789;28;20108;-72
2022/05/19 04:13:58;;;;;;;7.53;3.20;;;18.20;69.50;;;;;;5034074;28;20517;-70
2022/05/19 04:16:26;;;;;;;8.63;3.33;;;19.00;68.80;;;;;;5033665;28;20033;-72
2022/05/19 04:18:52;;;;;;;6.20;3.65;;;18.40;66.70;;;;;;5033440;28;20033;-72
2022/05/19 04:21:19;;;;;;;6.00;3.33;;;18.00;67.00;;;;;;5033518;28;20032;-71
2022/05/19 04:23:45;;;;;;;8.68;3.83;;;18.70;66.40;;;;;;5033810;28;20033;-72
2022/05/19 04:26:11;;;;;;;4.63;3.08;;;19.30;66.50;;;;;;5034580;28;20072;-71
2022/05/19 04:28:37;;;;;;;8.20;3.50;;;20.00;64.60;;;;;;5043689;28;20083;-70
2022/05/19 04:31:03;;;;;;;9.70;3.20;;;20.00;64.00;;;;;;5040997;28;20044;-65
2022/05/19 04:33:29;;;;;;;9.05;3.78;;;20.60;63.00;;;;;;5041031;28;20032;-71
2022/05/19 04:35:57;;;;;;;5.68;3.83;;;21.10;61.20;;;;;;5034418;28;20035;-73
2022/05/19 04:38:23;;;;;;;8.15;3.60;;;21.60;60.90;;;;;;5034625;28;20099;-73
2022/05/19 04:40:50;;;;;;;6.63;3.45;;;21.50;61.00;;;;;;5034485;28;20490;-73
2022/05/19 04:43:21;;;;;;;9.88;3.72;;;21.80;59.10;;;;;;5039824;28;20028;-73
2022/05/19 04:45:52;;;;;;;8.70;3.97;;;21.50;58.90;;;;;;5053082;28;20056;-73
2022/05/19 04:48:19;;;;;;;7.03;4.13;;;21.50;60.40;;;;;;5052725;28;20045;-72
2022/05/19 04:50:46;;;;;;;10.32;4.35;;;21.80;59.20;;;;;;5052003;28;20037;-65
2022/05/19 04:53:13;;;;;;;9.45;3.95;;;22.10;60.00;;;;;;5052281;28;20033;-67
2022/05/19 04:55:39;;;;;;;4.93;3.15;;;21.90;58.50;;;;;;5052597;28;20116;-73
2022/05/19 04:58:06;;;;;;;7.88;3.38;;;19.80;60.70;;;;;;5052976;28;20440;-71
2022/05/19 05:00:35;;;;;;;12.43;3.58;;;18.20;63.70;;;;;;5052775;28;20025;-71
2022/05/19 05:03:02;;;;;;;9.13;3.95;;;17.30;66.40;;;;;;5037159;28;20057;-72
2022/05/19 05:05:28;;;;;;;6.85;3.67;;;16.30;67.10;;;;;;5032533;28;20017;-72
2022/05/19 05:07:58;;;;;;;10.70;3.45;;;15.70;70.80;;;;;;5033712;28;20026;-72
2022/05/19 05:10:25;;;;;;;8.95;3.40;;;15.30;71.20;;;;;;5032440;28;20493;-70
2022/05/19 05:12:50;;;;;;;6.20;2.70;;;14.80;75.00;;;;;;5033723;28;20483;-72
2022/05/19 05:15:19;;;;;;;8.02;3.17;;;14.70;79.40;;;;;;5032126;28;20033;-71
2022/05/19 05:17:45;;;;;;;8.00;2.92;;;14.90;83.40;;;;;;5032321;28;20025;-69
2022/05/19 05:20:15;;;;;;;12.35;2.80;;;15.00;82.70;;;;;;5046331;28;20051;-72
2022/05/19 05:22:41;;;;;;;8.98;3.15;;;15.10;83.40;;;;;;5036149;28;20386;-72
2022/05/19 05:25:14;;;;;;;9.70;2.72;;;15.20;91.00;;;;;;5033408;28;20108;-72
2022/05/19 05:27:41;;;;;;;10.18;2.83;;;15.70;85.40;;;;;;5038212;28;20452;-72
2022/05/19 05:30:08;;;;;;;8.32;3.17;;;15.70;88.20;;;;;;5042305;28;20052;-72
2022/05/19 05:32:35;;;;;;;6.25;3.08;;;16.10;84.40;;;;;;5050432;28;20467;-71
2022/05/19 05:35:01;;;;;;;10.52;2.80;;;16.00;81.90;;;;;;5048924;28;20040;-72
2022/05/19 05:37:29;;;;;;;5.18;2.22;;;16.20;80.80;;;;;;5049996;28;20112;-72
2022/05/19 05:39:55;;;;;;;9.55;2.40;;;16.40;79.60;;;;;;5046533;28;20041;-70
2022/05/19 05:42:21;;;;;;;5.10;2.35;;;16.50;78.20;;;;;;5052323;28;20043;-71
2022/05/19 05:44:48;;;;;;;7.25;2.20;;;16.40;78.40;;;;;;5050030;28;20111;-70
2022/05/19 05:47:14;;;;;;;6.22;2.55;;;16.30;77.80;;;;;;5051792;28;20037;-72
2022/05/19 05:49:43;;;;;;;8.48;2.90;;;16.10;81.60;;;;;;5037242;28;20108;-72
2022/05/19 05:52:09;;;;;;;8.85;3.15;;;16.30;81.30;;;;;;5034116;28;20026;-70
2022/05/19 05:54:34;;;;;;;5.95;2.55;;;16.60;76.90;;;;;;5032081;28;20491;-72
2022/05/19 05:57:01;;;;;;;6.30;2.08;;;16.40;77.90;;;;;;5032738;28;20036;-71
2022/05/19 05:59:27;;;;;;;5.22;2.17;;;16.20;78.30;;;;;;5032705;28;20060;-72
2022/05/19 06:01:53;;;;;;;5.00;1.65;;;16.50;77.80;;;;;;5032160;28;20670;-70
2022/05/19 06:04:19;;;;;;;6.65;2.50;;;16.70;76.10;;;;;;5031832;28;20537;-72
2022/05/19 06:06:47;;;;;;;10.90;2.72;;;17.00;76.70;;;;;;5033142;28;20021;-72
2022/05/19 06:09:16;;;;;;;6.18;1.80;;;17.20;75.60;;;;;;5033947;28;20033;-72
2022/05/19 06:11:43;;;;;;;10.25;2.22;;;17.60;73.00;;;;;;5031906;28;20036;-72
2022/05/19 06:14:09;;;;;;;4.68;1.90;;;17.60;70.90;;;;;;5031542;28;20021;-72
2022/05/19 06:16:35;;;;;;;6.32;2.60;;;17.70;72.10;;;;;;5032605;28;20022;-71
2022/05/19 06:19:03;;;;;;;12.35;2.22;;;17.80;70.90;;;;;;5041939;28;20041;-72
2022/05/19 06:21:28;;;;;;;6.57;2.05;;;18.10;73.00;;;;;;5038764;28;20410;-72
2022/05/19 06:23:55;;;;;;;3.70;1.95;;;18.30;70.60;;;;;;5039634;28;20018;-73
2022/05/19 06:26:23;;;;;;;5.47;2.03;;;18.60;67.40;;;;;;5035025;28;20119;-72
2022/05/19 06:28:51;;;;;;;10.68;2.72;;;19.00;68.20;;;;;;5031874;28;20030;-71
2022/05/19 06:31:17;;;;;;;4.15;1.77;;;18.90;67.90;;;;;;5031821;28;20029;-72
2022/05/19 06:33:43;;;;;;;8.82;3.08;;;18.90;66.80;;;;;;5032820;28;20036;-72
2022/05/19 06:36:10;;;;;;;5.07;2.25;;;19.10;64.80;;;;;;5039648;28;20105;-72
2022/05/19 06:38:36;;;;;;;5.10;2.20;;;19.20;66.00;;;;;;5051324;28;20026;-72
2022/05/19 06:43:47;;;;;;;6.43;2.40;;;19.40;67.50;;;;;;5045795;28;20379;-65
2022/05/19 06:46:13;;;;;;;5.57;1.83;;;19.60;65.40;;;;;;5034550;28;20020;-72
2022/05/19 06:48:40;;;;;;;7.72;2.45;;;19.50;63.70;;;;;;5042568;28;20399;-72
2022/05/19 06:51:05;;;;;;;4.53;1.88;;;19.50;64.80;;;;;;5033665;28;20029;-71
2022/05/19 06:53:39;;;;;;;5.00;1.75;;;19.50;64.40;;;;;;5040722;28;20112;-72
2022/05/19 06:56:08;;;;;;;9.73;1.85;;;19.20;67.70;;;;;;5037374;28;20025;-72
2022/05/19 06:58:34;;;;;;;5.20;2.30;;;19.60;66.70;;;;;;5031314;28;20076;-72
2022/05/19 07:01:03;;;;;;;13.00;3.53;;;19.70;65.80;;;;;;5031637;28;20048;-73
2022/05/19 07:03:31;;;;;;;9.88;3.17;;;20.10;66.50;;;;;;5032468;28;20021;-72
2022/05/19 07:05:57;;;;;;;7.28;2.63;;;20.10;63.70;;;;;;5040262;28;20083;-72
2022/05/19 07:08:26;;;;;;;3.33;1.92;;;20.10;63.30;;;;;;5034104;28;20024;-72
2022/05/19 07:10:52;;;;;;;6.38;2.53;;;20.10;63.20;;;;;;5034644;28;20029;-71
2022/05/19 07:13:18;;;;;;;4.45;2.13;;;20.10;63.70;;;;;;5035666;28;20082;-72
2022/05/19 07:15:46;;;;;;;6.25;2.03;;;20.40;63.20;;;;;;5052178;28;20090;-72
2022/05/19 07:18:12;;;;;;;7.25;2.30;;;20.30;62.60;;;;;;5051268;28;20032;-72
2022/05/19 07:20:43;;;;;;;6.28;1.85;;;20.40;60.40;;;;;;5035582;28;20479;-72
2022/05/19 07:23:20;;;;;;;7.97;1.30;;;20.40;60.80;;;;;;5045986;28;20021;-73
2022/05/19 07:25:47;;;;;;;4.25;1.80;;;20.30;59.40;;;;;;5036062;28;20325;-71
2022/05/19 07:28:14;;;;;;;5.85;2.00;;;20.70;60.40;;;;;;5040678;28;20052;-72
2022/05/19 07:30:43;;;;;;;4.75;1.95;;;21.10;58.90;;;;;;5049793;28;20481;-71
2022/05/19 07:33:11;;;;;;;6.43;1.58;;;21.30;58.20;;;;;;5038294;28;20058;-72
2022/05/19 07:35:40;;;;;;;7.00;1.40;;;21.10;58.40;;;;;;5051637;28;20086;-72
2022/05/19 07:38:08;;;;;;;3.30;1.48;;;21.20;56.10;;;;;;5053232;28;20059;-67
2022/05/19 07:40:34;;;;;;;2.42;1.40;;;21.20;55.70;;;;;;5037367;28;20361;-71
2022/05/19 07:45:44;;;;;;;4.10;1.40;;;21.60;57.10;;;;;;5035758;28;20465;-72
2022/05/19 07:48:10;;;;;;;4.65;1.50;;;21.30;56.10;;;;;;5034530;28;20125;-72
2022/05/19 07:50:36;;;;;;;4.22;1.50;;;21.60;58.20;;;;;;5034474;28;20040;-72
2022/05/19 07:53:02;;;;;;;5.00;1.55;;;21.60;55.00;;;;;;5035322;28;20029;-68
2022/05/19 07:55:28;;;;;;;2.47;1.40;;;21.70;55.40;;;;;;5053681;28;20112;-71
2022/05/19 07:57:54;;;;;;;4.60;1.30;;;21.50;55.30;;;;;;5042999;28;20091;-72
2022/05/19 08:00:20;;;;;;;3.58;1.08;;;21.80;53.30;;;;;;5048615;28;20510;-72
2022/05/19 08:02:46;;;;;;;2.90;1.48;;;21.90;53.90;;;;;;5035357;28;20108;-71
2022/05/19 08:05:15;;;;;;;2.97;1.30;;;21.70;52.70;;;;;;5033513;28;20056;-69
2022/05/19 08:07:41;;;;;;;3.55;1.23;;;22.00;54.80;;;;;;5034851;28;20060;-71
2022/05/19 08:10:25;;;;;;;4.32;1.60;;;22.20;53.30;;;;;;5033211;28;20586;-72
2022/05/19 08:15:44;;;;;;;3.72;1.20;;;22.10;52.30;;;;;;5034774;28;20040;-71
2022/05/19 08:18:13;;;;;;;5.07;1.60;;;22.30;54.00;;;;;;5033010;28;20032;-69
2022/05/19 08:20:50;;;;;;;3.17;1.38;;;22.60;53.40;;;;;;5036544;28;20053;-71
2022/05/19 08:23:22;;;;;;;4.68;1.35;;;22.80;53.70;;;;;;5051524;28;20036;-72
2022/05/19 08:25:48;;;;;;;3.10;1.10;;;22.30;51.80;;;;;;5050117;28;20510;-72
2022/05/19 08:28:18;;;;;;;1.92;1.20;;;22.20;52.30;;;;;;5042996;28;20120;-72
2022/05/19 08:30:49;;;;;;;3.13;1.20;;;22.10;52.00;;;;;;5040079;28;20044;-72
2022/05/19 08:33:18;;;;;;;3.90;1.20;;;22.30;54.20;;;;;;5050755;28;20021;-70
2022/05/19 08:35:44;;;;;;;2.30;1.30;;;22.40;51.40;;;;;;5053351;28;20025;-72
2022/05/19 08:38:14;;;;;;;5.15;1.42;;;23.00;53.10;;;;;;5051556;28;20036;-72
2022/05/19 08:41:12;;;;;;;6.45;1.52;;;23.10;54.40;;;;;;5051714;28;20034;-72
2022/05/19 08:43:51;;;;;;;3.15;1.20;;;22.90;53.30;;;;;;5039971;28;20064;-71
2022/05/19 08:46:30;;;;;;;4.28;1.08;;;22.70;52.80;;;;;;5030665;28;20199;-71
2022/05/19 08:49:20;;;;;;;2.97;1.50;;;22.50;53.50;;;;;;5031744;28;20041;-72
2022/05/19 08:52:01;;;;;;;2.17;1.30;;;22.30;52.00;;;;;;4952733;29;20412;-72
2022/05/19 08:54:27;;;;;;;1.25;0.93;;;22.20;51.60;;;;;;4951606;28;20110;-72
2022/05/19 08:57:47;;;;;;;2.05;1.20;;;22.30;52.20;;;;;;4952212;28;20039;-70
2022/05/19 09:00:25;;;;;;;4.28;1.25;;;22.80;52.60;;;;;;4931721;29;20048;-72
2022/05/19 09:02:54;;;;;;;4.25;1.25;;;22.70;53.40;;;;;;4932962;29;20063;-72
2022/05/19 09:05:42;;;;;;;6.15;1.27;;;23.00;52.60;;;;;;4933298;29;20107;-72
2022/05/19 09:08:59;;;;;;;3.33;1.20;;;22.70;52.50;;;;;;4932687;29;20520;-71
2022/05/19 09:11:49;;;;;;;1.65;0.85;;;22.40;52.50;;;;;;4894943;29;20056;-70
2022/05/19 09:14:18;;;;;;;3.05;1.17;;;22.60;51.50;;;;;;4882043;29;20040;-71
2022/05/19 09:16:44;;;;;;;3.08;1.00;;;22.80;50.30;;;;;;4895045;29;20059;-71
2022/05/19 09:19:30;;;;;;;1.55;0.80;;;22.30;49.90;;;;;;4891963;29;20040;-68
2022/05/19 09:22:12;;;;;;;3.15;1.30;;;22.50;52.10;;;;;;4890547;29;20037;-72
2022/05/19 09:24:40;;;;;;;2.60;1.00;;;22.50;50.70;;;;;;4894685;29;20047;-70
2022/05/19 09:27:06;;;;;;;2.15;1.08;;;23.00;50.00;;;;;;4894809;29;20043;-72
2022/05/19 09:29:45;;;;;;;4.03;0.93;;;22.80;49.20;;;;;;4906125;29;20048;-71
2022/05/19 09:32:18;;;;;;;3.10;0.90;;;23.10;51.20;;;;;;4900747;29;20035;-67
2022/05/19 09:34:50;;;;;;;3.42;1.20;;;23.50;52.60;;;;;;4962472;28;20054;-71
2022/05/19 09:37:42;;;;;;;3.97;1.13;;;23.50;50.90;;;;;;4971351;28;20038;-72
2022/05/19 09:40:12;;;;;;;4.05;1.20;;;23.70;50.00;;;;;;4967475;28;20083;-71
2022/05/19 09:42:53;;;;;;;2.88;0.95;;;23.10;48.60;;;;;;4968649;28;20082;-71
2022/05/19 09:45:27;;;;;;;4.07;1.00;;;23.30;49.30;;;;;;4960829;28;20026;-72
2022/05/19 09:48:06;;;;;;;7.32;1.00;;;22.90;50.70;;;;;;5049701;28;20103;-71
2022/05/19 09:50:44;;;;;;;4.65;1.30;;;22.70;50.20;;;;;;5051339;28;20402;-72
2022/05/19 09:53:17;;;;;;;2.28;1.00;;;22.70;49.20;;;;;;5044509;28;20032;-71
2022/05/19 09:55:46;;;;;;;3.03;0.88;;;22.80;49.10;;;;;;5036386;28;20036;-67
2022/05/19 09:58:15;;;;;;;4.53;0.85;;;23.00;48.80;;;;;;5032271;28;20049;-70
2022/05/19 10:00:49;;;;;;;1.00;0.60;;;22.70;48.50;;;;;;5035210;28;20029;-72
2022/05/19 10:03:42;;;;;;;2.83;1.00;;;22.90;47.50;;;;;;5030377;28;20053;-72
2022/05/19 10:06:23;;;;;;;6.85;1.05;;;22.80;49.60;;;;;;5029367;28;20429;-71
2022/05/19 10:09:00;;;;;;;4.60;1.23;;;23.00;50.60;;;;;;5029210;28;20037;-71
2022/05/19 10:11:29;;;;;;;2.15;1.40;;;23.40;54.60;;;;;;5028945;28;20022;-72
2022/05/19 10:14:03;;;;;;;3.90;1.38;;;22.90;50.80;;;;;;5028762;28;20022;-70
2022/05/19 10:16:34;;;;;;;11.10;1.30;;;22.60;49.60;;;;;;5032076;28;20048;-71
2022/05/19 10:19:28;;;;;;;2.67;1.05;;;23.00;51.70;;;;;;5030042;28;20094;-72
2022/05/19 10:22:22;;;;;;;2.88;1.08;;;23.10;50.40;;;;;;5029358;28;20029;-69
2022/05/19 10:24:54;;;;;;;4.05;1.17;;;23.20;49.30;;;;;;5040621;28;20104;-72
2022/05/19 10:33:19;;;;;;;8.77;1.65;;;23.50;49.60;;;;;;5051391;28;20490;-70
2022/05/19 10:36:06;;;;;;;4.75;1.30;;;23.60;49.30;;;;;;5049581;28;20660;-72
2022/05/19 10:39:01;;;;;;;2.17;0.90;;;23.70;49.10;;;;;;5061901;28;20234;-71
2022/05/19 10:41:41;;;;;;;4.28;0.90;;;23.50;48.70;;;;;;5059818;28;20060;-72
2022/05/19 10:44:24;;;;;;;2.05;0.98;;;23.90;52.70;;;;;;5054777;28;20513;-73
2022/05/19 10:47:23;;;;;;;1.92;1.00;;;24.10;52.10;;;;;;5053694;28;20033;-71
2022/05/19 10:50:09;;;;;;;6.75;1.30;;;24.30;49.10;;;;;;5034953;28;20298;-72
2022/05/19 10:52:58;;;;;;;3.65;1.02;;;23.70;49.80;;;;;;5060897;28;20504;-65
2022/05/19 10:55:27;;;;;;;8.73;1.17;;;23.50;50.40;;;;;;5052599;28;20031;-72
2022/05/19 10:58:30;;;;;;;5.55;0.98;;;23.00;49.20;;;;;;5065662;28;20021;-69
2022/05/19 11:01:17;;;;;;;1.35;0.98;;;23.20;49.40;;;;;;5035216;28;20045;-72
2022/05/19 11:04:14;;;;;;;4.97;1.33;;;23.60;52.60;;;;;;5054797;28;20086;-72
2022/05/19 11:06:40;;;;;;;2.70;1.42;;;23.50;49.10;;;;;;5053386;28;20035;-72
2022/05/19 11:09:18;;;;;;;2.38;0.85;;;23.70;51.30;;;;;;5055733;28;20088;-72
2022/05/19 11:12:13;;;;;;;3.60;1.13;;;23.30;49.10;;;;;;5046815;28;20029;-72
2022/05/19 11:14:45;;;;;;;2.58;1.27;;;23.30;49.50;;;;;;5054600;28;20082;-72
2022/05/19 11:17:38;;;;;;;4.53;1.15;;;23.50;48.80;;;;;;5054707;28;20102;-71
2022/05/19 11:20:14;;;;;;;11.40;1.45;;;23.20;48.40;;;;;;5054269;28;20040;-72
2022/05/19 11:22:41;;;;;;;7.82;1.30;;;23.10;49.90;;;;;;5054593;28;20032;-72
2022/05/19 11:28:23;;;;;;;;;;;22.90;49.60;;;;;;5076573;28;20032;-72
2022/05/19 11:30:58;;;;;;;7.00;1.27;;;23.20;50.30;;;;;;5092427;28;19908;-67
2022/05/19 11:33:33;;;;;;;1.95;1.10;;;23.00;47.80;;;;;;5092446;28;20124;-72
2022/05/19 11:36:07;;;;;;;2.97;1.05;;;23.00;47.60;;;;;;5092091;28;20447;-71
2022/05/19 11:38:45;;;;;;;1.23;0.75;;;23.30;48.00;;;;;;5092112;28;20431;-71
2022/05/19 11:41:20;;;;;;;2.15;1.15;;;23.50;48.50;;;;;;5091788;28;20482;-71
2022/05/19 11:43:46;;;;;;;4.60;1.27;;;23.20;49.10;;;;;;5092131;28;20036;-71
2022/05/19 11:46:29;;;;;;;1.55;1.02;;;23.30;47.40;;;;;;5091924;28;20044;-71
2022/05/19 11:57:42;;;;;;;3.05;1.20;;;23.10;46.90;;;;;;5092058;28;20167;-73
2022/05/19 12:00:13;;;;;;;7.65;2.15;;;23.30;49.00;;;;;;5091945;28;20139;-65
2022/05/19 12:03:04;;;;;;;4.47;1.40;;;23.20;48.10;;;;;;5109670;28;20036;-72
2022/05/19 12:05:51;;;;;;;2.55;1.10;;;23.30;48.40;;;;;;5080368;28;20044;-73
2022/05/19 12:08:28;;;;;;;2.10;1.25;;;23.30;48.00;;;;;;5074033;28;20517;-73
2022/05/19 12:11:13;;;;;;;4.30;1.23;;;23.40;47.90;;;;;;5074006;28;20025;-72
2022/05/19 12:13:45;;;;;;;3.13;1.05;;;23.30;48.00;;;;;;5057632;28;20116;-72
2022/05/19 12:16:22;;;;;;;2.97;1.27;;;23.20;47.10;;;;;;5073473;28;20024;-72
2022/05/19 12:19:32;;;;;;;6.40;1.13;;;23.40;49.10;;;;;;5063285;28;20460;-70
2022/05/19 12:21:58;;;;;;;3.42;1.42;;;23.20;48.70;;;;;;5054555;28;20041;-71
2022/05/19 12:24:29;;;;;;;5.55;1.25;;;23.30;47.40;;;;;;5055121;28;20056;-72
2022/05/19 12:27:18;;;;;;;4.63;1.13;;;23.20;48.30;;;;;;5061581;28;20028;-72
2022/05/19 12:33:11;;;;;;;2.47;1.23;;;23.30;47.80;;;;;;5033183;28;20029;-71
2022/05/19 12:35:39;;;;;;;2.05;1.10;;;23.30;48.60;;;;;;5047771;28;20236;-71
2022/05/19 12:38:25;;;;;;;3.78;1.38;;;23.20;48.30;;;;;;5041995;28;20040;-73
2022/05/19 12:40:53;;;;;;;3.78;1.05;;;23.10;47.50;;;;;;5031909;28;20033;-71
2022/05/19 12:43:36;;;;;;;1.90;1.20;;;23.30;47.90;;;;;;5031032;28;20446;-72
2022/05/19 12:46:32;;;;;;;3.25;1.15;;;23.30;47.60;;;;;;5031593;28;20164;-72
2022/05/19 12:49:37;;;;;;;4.28;1.30;;;23.40;47.20;;;;;;5033210;28;20045;-70
2022/05/19 12:52:18;;;;;;;2.50;1.20;;;23.50;49.00;;;;;;5031594;28;20385;-71
2022/05/19 12:55:22;;;;;;;2.67;1.30;;;23.50;47.80;;;;;;5050502;28;20040;-71
2022/05/19 12:57:49;;;;;;;2.05;1.30;;;23.50;48.90;;;;;;5026706;28;20040;-67
2022/05/19 13:00:35;;;;;;;2.80;1.40;;;23.70;49.40;;;;;;5051137;28;20064;-64
2022/05/19 13:03:04;;;;;;;3.83;1.45;;;23.30;47.70;;;;;;5050134;28;20080;-68
2022/05/19 13:05:33;;;;;;;3.08;1.30;;;23.60;48.90;;;;;;5052705;28;20207;-66
2022/05/19 13:08:14;;;;;;;6.00;1.90;;;23.60;47.80;;;;;;5069639;28;20425;-65
2022/05/19 13:10:44;;;;;;;5.00;1.63;;;23.70;50.00;;;;;;5065547;28;20168;-69
2022/05/19 13:13:29;;;;;;;5.63;1.42;;;23.80;48.20;;;;;;5048477;28;20029;-65
2022/05/19 13:16:10;;;;;;;3.75;1.48;;;23.60;47.30;;;;;;5044744;28;20174;-71
2022/05/19 13:18:42;;;;;;;5.82;1.80;;;23.70;48.10;;;;;;5046755;28;20061;-65
2022/05/19 13:21:20;;;;;;;2.67;1.27;;;23.70;47.40;;;;;;5047350;28;20108;-71
2022/05/19 13:23:46;;;;;;;1.52;1.13;;;23.90;49.10;;;;;;5034657;28;20103;-69
2022/05/19 13:26:24;;;;;;;3.78;1.70;;;24.00;47.50;;;;;;5029207;28;20096;-68
2022/05/19 13:32:11;;;;;;;2.80;1.35;;;23.90;46.50;;;;;;5038843;28;20022;-68
2022/05/19 13:34:41;;;;;;;5.13;1.45;;;23.80;46.30;;;;;;5030092;28;20032;-72
2022/05/19 13:37:09;;;;;;;4.78;1.40;;;23.90;47.20;;;;;;5041564;28;20474;-69
2022/05/19 13:39:35;;;;;;;7.50;1.90;;;24.00;47.40;;;;;;5050665;28;20107;-70
2022/05/19 13:42:09;;;;;;;2.15;1.48;;;24.00;47.50;;;;;;5051890;28;20032;-64
2022/05/19 13:44:36;;;;;;;1.45;1.20;;;24.10;47.00;;;;;;5055220;28;20056;-66
2022/05/19 13:47:27;;;;;;;4.72;1.60;;;24.20;49.00;;;;;;5051411;28;20441;-67
2022/05/19 13:49:59;;;;;;;3.13;1.73;;;24.40;50.00;;;;;;5046025;28;20036;-65